Aviation Digital Data Service (ADDS)

Output produced by METARs form (0928 UTC 24 March 2019)
found at http://www.aviationweather.gov/metar/data/
 
Forecast for: WAPP (AMBON/PATTIMURA , ID)
Text: TAF WAPP 240500Z 2406/2506 33008KT 9999 FEW020
Forecast period: 0600 UTC 24 March 2019 to 0600 UTC 25 March 2019
Forecast type: FROM: standard forecast or significant change
Winds: from the NNW (330 degrees) at 9 MPH (8 knots; 4.1 m/s)
Visibility: 6 or more miles 10+ km)
Ceiling: at least 12,000 feet AGL
Clouds: few clouds at 2000 feet AGL
Weather: no significant weather forecast for this period